Yusho Cherry — 3ELM7 — position and weather

sailwx.info

Track history (hours):
 
Tides and Currents Weather Stations Pressure Air Temp Water Temp Dewpoint Dewpoint Depression Visibility Wind Speed Wind Dir Waves Ship Positions

Yusho Cherry

Last reported at 2017-Dec-15 17:59 UTC. Time now 2017-Dec-15 18:08 UTC.
Position N 34°13' E 135°06'.

Length 110 m; draft 8.4 m.

Type: Ship. MMSI: 372991000.

Date/timePositionNaut miles runAvg speedWind from/ knotsBaromVisibWave heightAir tempDewpointWater temp
2017-Dec-15 17:59N 34°13' E 135°06'0 0.0
2017-Dec-15 17:29N 34°13' E 135°06'0 0.0
2017-Dec-15 16:59N 34°13' E 135°06'0 0.0
2017-Dec-15 16:29N 34°13' E 135°06'0 0.0
2017-Dec-15 15:59N 34°13' E 135°06'0 0.1
2017-Dec-15 15:29N 34°13' E 135°06'0 0.1
2017-Dec-15 14:59N 34°13' E 135°06'0 0.0
2017-Dec-15 14:29N 34°13' E 135°06'0 0.0
2017-Dec-15 13:59N 34°13' E 135°06'0 0.0
2017-Dec-15 13:29N 34°13' E 135°06'0 0.0
2017-Dec-15 12:59N 34°13' E 135°06'0 0.0
2017-Dec-15 12:29N 34°13' E 135°06'0 0.0
2017-Dec-15 11:59N 34°13' E 135°06'0 0.0
2017-Dec-15 11:29N 34°13' E 135°06'0 0.0
2017-Dec-15 11:00N 34°13' E 135°06'1 1.2
2017-Dec-15 10:30N 34°13' E 135°06'4 7.9
2017-Dec-15 10:01N 34°14' E 135°01'5 9.2
2017-Dec-15 09:30N 34°18' E 134°59'611.2
2017-Dec-15 09:00N 34°23' E 135°02'611.6
2017-Dec-15 08:31N 34°27' E 135°07'611.9
2017-Dec-15 08:00N 34°31' E 135°12'611.4
2017-Dec-15 07:30N 34°35' E 135°17'611.3
2017-Dec-15 07:01N 34°38' E 135°23'3 5.3
2017-Dec-15 06:31N 34°39' E 135°26'0 0.1
2017-Dec-15 05:59N 34°39' E 135°26'0 0.0
2017-Dec-15 05:29N 34°39' E 135°26'0 0.0
2017-Dec-15 04:59N 34°39' E 135°26'0 0.0
2017-Dec-15 04:29N 34°39' E 135°26'0 0.0
2017-Dec-15 03:59N 34°39' E 135°26'0 0.0
2017-Dec-15 02:29N 34°39' E 135°26'0 0.0
2017-Dec-15 00:59N 34°39' E 135°26'0 0.0
2017-Dec-15 00:29N 34°39' E 135°26'0 0.0
2017-Dec-14 18:29N 34°39' E 135°26'0 0.0
2017-Dec-14 17:59N 34°39' E 135°26'0 0.0
2017-Dec-14 17:29N 34°39' E 135°26'0 0.0
2017-Dec-14 16:59N 34°39' E 135°26'0 0.0
2017-Dec-14 16:29N 34°39' E 135°26'0 0.0
2017-Dec-14 15:59N 34°39' E 135°26'0 0.0
2017-Dec-14 14:59N 34°39' E 135°26'0 0.0
2017-Dec-14 14:29N 34°39' E 135°26'0 0.0
2017-Dec-14 13:59N 34°39' E 135°26'0 0.0
2017-Dec-14 13:29N 34°39' E 135°26'0 0.0
2017-Dec-14 12:59N 34°39' E 135°26'0 0.0
2017-Dec-14 12:29N 34°39' E 135°26'0 0.0
2017-Dec-14 11:59N 34°39' E 135°26'0 0.0
2017-Dec-14 11:29N 34°39' E 135°26'0 0.0
2017-Dec-14 10:59N 34°39' E 135°26'0 0.0
2017-Dec-14 10:29N 34°39' E 135°26'0 0.0
2017-Dec-14 09:59N 34°39' E 135°26'0 0.0
2017-Dec-14 09:29N 34°39' E 135°26'0 0.0
2017-Dec-14 08:59N 34°39' E 135°26'0 0.0
2017-Dec-14 08:29N 34°39' E 135°26'0 0.0
2017-Dec-14 07:59N 34°39' E 135°26'0 0.0
2017-Dec-14 07:29N 34°39' E 135°26'0 0.0
2017-Dec-14 06:59N 34°39' E 135°26'0 0.0
2017-Dec-14 06:29N 34°39' E 135°26'0 0.0
2017-Dec-14 05:59N 34°39' E 135°26'0 0.0
2017-Dec-14 05:29N 34°39' E 135°26'0 0.0
2017-Dec-14 04:59N 34°39' E 135°26'0 0.0
2017-Dec-14 04:29N 34°39' E 135°26'0 0.0
2017-Dec-14 03:59N 34°39' E 135°26'0 0.0
2017-Dec-14 03:29N 34°39' E 135°26'0 0.0
2017-Dec-14 02:59N 34°39' E 135°26'0 0.0
2017-Dec-14 02:29N 34°39' E 135°26'0 0.0
2017-Dec-14 01:59N 34°39' E 135°26'0 0.0
2017-Dec-14 01:29N 34°39' E 135°26'0 0.0
2017-Dec-14 00:59N 34°39' E 135°26'0 0.0
2017-Dec-14 00:29N 34°39' E 135°26'0 0.0
2017-Dec-13 23:59N 34°39' E 135°26'0 0.0
2017-Dec-13 23:29N 34°39' E 135°26'0 0.0
2017-Dec-13 22:59N 34°39' E 135°26'0 0.0
2017-Dec-13 22:29N 34°39' E 135°26'0 0.1
2017-Dec-13 21:59N 34°39' E 135°26'1 1.8
2017-Dec-13 21:30N 34°39' E 135°25'2 5.0
2017-Dec-13 21:00N 34°37' E 135°23'0 0.2
2017-Dec-13 20:29N 34°37' E 135°23'0 0.1
2017-Dec-13 19:59N 34°37' E 135°23'0 0.1
2017-Dec-13 19:29N 34°37' E 135°23'0 0.0
2017-Dec-13 18:59N 34°37' E 135°23'0 0.1
2017-Dec-13 18:29N 34°37' E 135°23'0 0.0
2017-Dec-13 17:59N 34°37' E 135°23'0 0.0
2017-Dec-13 17:29N 34°37' E 135°23'0 0.0
2017-Dec-13 16:59N 34°37' E 135°23'0 0.0
2017-Dec-13 16:29N 34°37' E 135°23'0 0.0
2017-Dec-13 15:59N 34°37' E 135°23'0 0.0
2017-Dec-13 15:29N 34°37' E 135°23'0 0.1
2017-Dec-13 14:59N 34°37' E 135°23'0 0.0
2017-Dec-13 14:26N 34°37' E 135°23'0 0.0
2017-Dec-13 13:59N 34°37' E 135°23'0 0.0
2017-Dec-13 13:29N 34°37' E 135°23'0 0.1
2017-Dec-13 12:59N 34°37' E 135°23'0 0.0
2017-Dec-13 12:29N 34°37' E 135°23'0 0.0
2017-Dec-13 11:59N 34°37' E 135°23'0 0.0
2017-Dec-13 11:29N 34°37' E 135°23'0 0.0
2017-Dec-13 10:59N 34°37' E 135°23'0 0.0
2017-Dec-13 10:29N 34°37' E 135°23'0 0.0
2017-Dec-13 09:59N 34°37' E 135°23'0 0.0
2017-Dec-13 09:29N 34°37' E 135°23'0 0.0
2017-Dec-13 08:59N 34°37' E 135°23'0 0.0
2017-Dec-13 08:29N 34°37' E 135°23'0 0.3
2017-Dec-13 08:00N 34°37' E 135°23'3 5.4
2017-Dec-13 07:30N 34°35' E 135°22'4 8.3
2017-Dec-13 07:00N 34°31' E 135°23'0 0.3
2017-Dec-13 06:28N 34°31' E 135°23'0 0.0
2017-Dec-13 05:58N 34°31' E 135°23'0 0.0
2017-Dec-13 05:28N 34°31' E 135°23'0 0.0
2017-Dec-13 04:58N 34°31' E 135°23'0 0.0
2017-Dec-13 04:28N 34°31' E 135°23'0 0.0
2017-Dec-13 03:58N 34°31' E 135°23'0 0.0
2017-Dec-13 03:28N 34°31' E 135°23'0 0.0
2017-Dec-13 02:58N 34°31' E 135°23'0 0.0
2017-Dec-13 02:28N 34°31' E 135°23'0 0.0
2017-Dec-13 01:58N 34°31' E 135°23'0 0.0
2017-Dec-13 01:28N 34°31' E 135°23'0 0.0
2017-Dec-13 00:58N 34°31' E 135°23'0 0.0
2017-Dec-13 00:28N 34°31' E 135°23'0 0.0
2017-Dec-12 23:58N 34°31' E 135°23'0 0.0
2017-Dec-12 23:28N 34°31' E 135°23'0 0.0
2017-Dec-12 22:58N 34°31' E 135°23'0 0.0
2017-Dec-12 22:28N 34°31' E 135°23'0 0.0
2017-Dec-12 21:58N 34°31' E 135°23'0 0.0
2017-Dec-12 21:28N 34°31' E 135°23'0 0.0
2017-Dec-12 20:58N 34°31' E 135°23'0 0.0
2017-Dec-12 20:28N 34°31' E 135°23'0 0.0
2017-Dec-12 19:58N 34°31' E 135°23'0 0.0
2017-Dec-12 19:28N 34°31' E 135°23'0 0.0
2017-Dec-12 18:58N 34°31' E 135°23'0 0.0
2017-Dec-12 18:28N 34°31' E 135°23'0 0.0
2017-Dec-12 17:58N 34°31' E 135°23'0 0.0
2017-Dec-12 17:28N 34°31' E 135°23'0 0.0
2017-Dec-12 16:58N 34°31' E 135°23'0 0.0
2017-Dec-12 16:28N 34°31' E 135°23'0 0.0
2017-Dec-12 15:58N 34°31' E 135°23'0 0.0
2017-Dec-12 15:28N 34°31' E 135°23'0 0.0
2017-Dec-12 14:58N 34°31' E 135°23'0 0.0
2017-Dec-12 14:28N 34°31' E 135°23'0 0.0
2017-Dec-12 13:58N 34°31' E 135°23'0 0.0
2017-Dec-12 13:28N 34°31' E 135°23'0 0.0
2017-Dec-12 12:58N 34°31' E 135°23'0 0.0
2017-Dec-12 12:28N 34°31' E 135°23'0 0.0
2017-Dec-12 11:58N 34°31' E 135°23'0 0.0
2017-Dec-12 11:28N 34°31' E 135°23'0 0.0
2017-Dec-12 10:58N 34°31' E 135°23'0 0.0
2017-Dec-12 10:28N 34°31' E 135°23'0 0.0
2017-Dec-12 09:58N 34°31' E 135°23'0 0.0
2017-Dec-12 09:28N 34°31' E 135°23'0 0.0
2017-Dec-12 08:58N 34°31' E 135°23'0 0.0
2017-Dec-12 08:28N 34°31' E 135°23'0 0.0
2017-Dec-12 07:58N 34°31' E 135°23'0 0.0
2017-Dec-12 07:28N 34°31' E 135°23'0 0.0
2017-Dec-12 06:58N 34°31' E 135°23'0 0.0
2017-Dec-12 06:22N 34°31' E 135°23'0 0.0
2017-Dec-12 05:58N 34°31' E 135°23'0 0.0
2017-Dec-12 05:28N 34°31' E 135°23'0 0.0
2017-Dec-12 04:58N 34°31' E 135°23'0 0.0
2017-Dec-12 04:28N 34°31' E 135°23'0 0.0
2017-Dec-12 03:52N 34°31' E 135°23'0 0.0
2017-Dec-12 03:28N 34°31' E 135°23'0 0.0
2017-Dec-12 02:58N 34°31' E 135°23'0 0.0
2017-Dec-12 02:28N 34°31' E 135°23'0 0.0
2017-Dec-12 01:58N 34°31' E 135°23'0 0.0
2017-Dec-12 01:25N 34°31' E 135°23'0 0.0
2017-Dec-12 00:58N 34°31' E 135°23'0 0.0
2017-Dec-12 00:29N 34°31' E 135°23'0 0.0
2017-Dec-11 23:58N 34°31' E 135°23'0 0.0
2017-Dec-11 23:28N 34°31' E 135°23'0 0.0
2017-Dec-11 22:58N 34°31' E 135°23'0 0.0
2017-Dec-11 22:28N 34°31' E 135°23'0 0.0
2017-Dec-11 21:58N 34°31' E 135°23'0 0.0
2017-Dec-11 21:28N 34°31' E 135°23'0 0.0
2017-Dec-11 20:58N 34°31' E 135°23'0 0.0
2017-Dec-11 20:28N 34°31' E 135°23'0 0.0
2017-Dec-11 19:58N 34°31' E 135°23'0 0.0
2017-Dec-11 19:28N 34°31' E 135°23'0 0.0
2017-Dec-11 18:58N 34°31' E 135°23'0 0.0
2017-Dec-11 18:28N 34°31' E 135°23'0 0.0
2017-Dec-11 17:58N 34°31' E 135°23'0 0.0
2017-Dec-11 17:28N 34°31' E 135°23'0 0.0
2017-Dec-11 16:55N 34°31' E 135°23'0 0.0
2017-Dec-11 16:28N 34°31' E 135°23'0 0.0
2017-Dec-11 15:58N 34°31' E 135°23'0 0.0
2017-Dec-11 15:28N 34°31' E 135°23'0 0.0
2017-Dec-11 14:58N 34°31' E 135°23'0 0.0
2017-Dec-11 14:28N 34°31' E 135°23'0 0.0
2017-Dec-11 13:58N 34°31' E 135°23'0 0.0
2017-Dec-11 13:28N 34°31' E 135°23'0 0.0
2017-Dec-11 12:58N 34°31' E 135°23'0 0.0
2017-Dec-11 12:28N 34°31' E 135°23'0 0.0
2017-Dec-11 11:58N 34°31' E 135°23'0 0.0
2017-Dec-11 11:28N 34°31' E 135°23'0 0.0
2017-Dec-11 10:58N 34°31' E 135°23'0 0.0
2017-Dec-11 10:28N 34°31' E 135°23'0 0.0
2017-Dec-11 09:58N 34°31' E 135°23'0 0.0
2017-Dec-11 09:28N 34°31' E 135°23'0 0.0
2017-Dec-11 08:58N 34°31' E 135°23'0 0.0
2017-Dec-11 08:28N 34°31' E 135°23'0 0.0
2017-Dec-11 07:58N 34°31' E 135°23'0 0.0
2017-Dec-11 07:28N 34°31' E 135°23'0 0.0
2017-Dec-11 06:58N 34°31' E 135°23'0 0.0
2017-Dec-11 06:28N 34°31' E 135°23'0 0.0
2017-Dec-11 05:52N 34°31' E 135°23'0 0.0
2017-Dec-11 05:28N 34°31' E 135°23'0 0.0
2017-Dec-11 04:58N 34°31' E 135°23'0 0.0
2017-Dec-11 04:28N 34°31' E 135°23'0 0.0
2017-Dec-11 03:58N 34°31' E 135°23'0 0.0
2017-Dec-11 03:28N 34°31' E 135°23'0 0.0
2017-Dec-11 02:58N 34°31' E 135°23'0 0.0
2017-Dec-11 02:28N 34°31' E 135°23'0 0.0
2017-Dec-11 01:58N 34°31' E 135°23'0 0.0
2017-Dec-11 01:28N 34°31' E 135°23'0 0.0
2017-Dec-11 00:58N 34°31' E 135°23'0 0.0
2017-Dec-11 00:28N 34°31' E 135°23'0 0.0
2017-Dec-10 23:58N 34°31' E 135°23'0 0.0
2017-Dec-10 23:28N 34°31' E 135°23'0 0.0
2017-Dec-10 22:58N 34°31' E 135°23'0 0.0
2017-Dec-10 22:28N 34°31' E 135°23'0 0.0
2017-Dec-10 21:58N 34°31' E 135°23'0 0.0
2017-Dec-10 21:28N 34°31' E 135°23'0 0.1
2017-Dec-10 20:58N 34°31' E 135°23'0 0.0
2017-Dec-10 20:28N 34°31' E 135°23'0 0.0
2017-Dec-10 19:58N 34°31' E 135°23'0 0.0
2017-Dec-10 19:28N 34°31' E 135°23'0 0.0
2017-Dec-10 18:58N 34°31' E 135°23'0 0.0
2017-Dec-10 18:28N 34°31' E 135°23'0 0.0
2017-Dec-10 17:58N 34°31' E 135°23'0 0.0
2017-Dec-10 17:28N 34°31' E 135°23'0 0.0
2017-Dec-10 16:58N 34°31' E 135°23'0 0.0
2017-Dec-10 16:28N 34°31' E 135°23'0 0.0
2017-Dec-10 15:58N 34°31' E 135°23'0 0.0
2017-Dec-10 15:28N 34°31' E 135°23'0 0.0
2017-Dec-10 14:58N 34°31' E 135°23'0 0.0
2017-Dec-10 14:28N 34°31' E 135°23'0 0.0
2017-Dec-10 13:58N 34°31' E 135°23'0 0.0
2017-Dec-10 13:28N 34°31' E 135°23'0 0.0
2017-Dec-10 12:58N 34°31' E 135°23'0 0.0
2017-Dec-10 12:28N 34°31' E 135°23'0 0.0
2017-Dec-10 11:58N 34°31' E 135°23'0 0.0
2017-Dec-10 11:28N 34°31' E 135°23'0 0.0
2017-Dec-10 10:58N 34°31' E 135°23'0 0.0
2017-Dec-10 10:28N 34°31' E 135°23'0 0.0
2017-Dec-10 09:58N 34°31' E 135°23'0 0.0
2017-Dec-10 09:28N 34°31' E 135°23'0 0.0
2017-Dec-10 08:58N 34°31' E 135°23'0 0.0
2017-Dec-10 08:28N 34°31' E 135°23'0 0.0
2017-Dec-10 07:58N 34°31' E 135°23'0 0.0
2017-Dec-10 07:28N 34°31' E 135°23'0 0.0
2017-Dec-10 06:58N 34°31' E 135°23'0 0.0
2017-Dec-10 06:28N 34°31' E 135°23'0 0.0
2017-Dec-10 05:58N 34°31' E 135°23'0 0.0
2017-Dec-10 05:28N 34°31' E 135°23'0 0.0
2017-Dec-10 04:58N 34°31' E 135°23'0 0.0
2017-Dec-10 04:28N 34°31' E 135°23'0 0.0
2017-Dec-10 03:58N 34°31' E 135°23'0 0.0
2017-Dec-10 03:28N 34°31' E 135°23'0 0.0
2017-Dec-10 02:58N 34°31' E 135°23'0 0.0
2017-Dec-10 02:28N 34°31' E 135°23'0 0.0
2017-Dec-10 01:58N 34°31' E 135°23'0 0.0
2017-Dec-10 01:28N 34°31' E 135°23'0 0.0
2017-Dec-10 00:58N 34°31' E 135°23'0 0.0
2017-Dec-10 00:28N 34°31' E 135°23'0 0.0
2017-Dec-09 23:58N 34°31' E 135°23'0 0.0
2017-Dec-09 23:28N 34°31' E 135°23'0 0.0
2017-Dec-09 22:58N 34°31' E 135°23'0 0.0
2017-Dec-09 22:28N 34°31' E 135°23'0 0.0
2017-Dec-09 21:58N 34°31' E 135°23'0 0.0
2017-Dec-09 21:28N 34°31' E 135°23'0 0.0
2017-Dec-09 20:58N 34°31' E 135°23'0 0.0
2017-Dec-09 20:25N 34°31' E 135°23'0 0.0
2017-Dec-09 19:58N 34°31' E 135°23'0 0.0
2017-Dec-09 19:28N 34°31' E 135°23'0 0.0
2017-Dec-09 18:58N 34°31' E 135°23'0 0.0
2017-Dec-09 18:28N 34°31' E 135°23'0 0.0
2017-Dec-09 17:58N 34°31' E 135°23'0 0.0
2017-Dec-09 17:28N 34°31' E 135°23'0 0.0
2017-Dec-09 16:58N 34°31' E 135°23'0 0.0
2017-Dec-09 16:28N 34°31' E 135°23'0 0.0
2017-Dec-09 15:58N 34°31' E 135°23'0 0.0
2017-Dec-09 15:28N 34°31' E 135°23'0 0.0
2017-Dec-09 14:58N 34°31' E 135°23'0 0.0
2017-Dec-09 14:28N 34°31' E 135°23'0 0.0
2017-Dec-09 13:58N 34°31' E 135°23'0 0.0
2017-Dec-09 13:28N 34°31' E 135°23'0 0.0
2017-Dec-09 12:58N 34°31' E 135°23'0 0.0
2017-Dec-09 12:28N 34°31' E 135°23'0 0.0
2017-Dec-09 11:58N 34°31' E 135°23'0 0.0
2017-Dec-09 11:28N 34°31' E 135°23'0 0.0
2017-Dec-09 10:58N 34°31' E 135°23'0 0.0
2017-Dec-09 10:28N 34°31' E 135°23'0 0.0
2017-Dec-09 09:58N 34°31' E 135°23'0 0.0
2017-Dec-09 09:28N 34°31' E 135°23'0 0.0
2017-Dec-09 08:58N 34°31' E 135°23'0 0.0
2017-Dec-09 08:28N 34°31' E 135°23'0 0.0
2017-Dec-09 07:58N 34°31' E 135°23'0 0.0
2017-Dec-09 07:28N 34°31' E 135°23'0 0.0
2017-Dec-09 06:52N 34°31' E 135°23'0 0.0
2017-Dec-09 06:28N 34°31' E 135°23'0 0.0
2017-Dec-09 05:58N 34°31' E 135°23'0 0.0
2017-Dec-09 05:28N 34°31' E 135°23'0 0.0
2017-Dec-09 04:58N 34°31' E 135°23'0 0.0
2017-Dec-09 04:28N 34°31' E 135°23'0 0.0
2017-Dec-09 03:58N 34°31' E 135°23'0 0.0
2017-Dec-09 03:28N 34°31' E 135°23'0 0.0
2017-Dec-09 02:58N 34°31' E 135°23'0 0.0
2017-Dec-09 02:28N 34°31' E 135°23'0 0.0
2017-Dec-09 01:58N 34°31' E 135°23'0 0.0
2017-Dec-09 01:26N 34°31' E 135°23'0 0.0
2017-Dec-09 00:56N 34°31' E 135°23'0 0.0
2017-Dec-09 00:28N 34°31' E 135°23'0 0.0
2017-Dec-08 23:58N 34°31' E 135°23'0 0.0
2017-Dec-08 23:28N 34°31' E 135°23'0 0.0
2017-Dec-08 22:58N 34°31' E 135°23'0 0.0
2017-Dec-08 22:28N 34°31' E 135°23'0 0.1
2017-Dec-08 22:00N 34°31' E 135°23'0 0.3
2017-Dec-08 21:31N 34°31' E 135°23'0 0.0
2017-Dec-08 20:58N 34°31' E 135°23'0 0.0
2017-Dec-08 20:28N 34°31' E 135°23'0 0.0
2017-Dec-08 19:58N 34°31' E 135°23'0 0.0
2017-Dec-08 19:28N 34°31' E 135°23'0 0.0
2017-Dec-08 18:58N 34°31' E 135°23'0 0.0
2017-Dec-08 18:28N 34°31' E 135°23'0 0.0
2017-Dec-08 17:58N 34°31' E 135°23'0 0.0
2017-Dec-08 17:28N 34°31' E 135°23'0 0.0
2017-Dec-08 16:52N 34°31' E 135°23'0 0.0
2017-Dec-08 16:28N 34°31' E 135°23'0 0.0
2017-Dec-08 15:58N 34°31' E 135°23'0 0.0
2017-Dec-08 15:28N 34°31' E 135°23'0 0.0
2017-Dec-08 14:58N 34°31' E 135°23'0 0.0
2017-Dec-08 14:28N 34°31' E 135°23'0 0.0
2017-Dec-08 13:58N 34°31' E 135°23'0 0.0
2017-Dec-08 13:28N 34°31' E 135°23'0 0.0
2017-Dec-08 12:58N 34°31' E 135°23'0 0.0
2017-Dec-08 12:28N 34°31' E 135°23'0 0.0
2017-Dec-08 11:58N 34°31' E 135°23'0 0.0
2017-Dec-08 11:28N 34°31' E 135°23'0 0.0
2017-Dec-08 10:58N 34°31' E 135°23'0 0.0
2017-Dec-08 10:28N 34°31' E 135°23'0 0.0
2017-Dec-08 09:58N 34°31' E 135°23'0 0.0
2017-Dec-08 09:25N 34°31' E 135°23'0 0.0
2017-Dec-08 08:58N 34°31' E 135°23'0 0.0
2017-Dec-08 08:28N 34°31' E 135°23'0 0.0
2017-Dec-08 07:58N 34°31' E 135°23'0 0.0
2017-Dec-08 07:28N 34°31' E 135°23'0 0.0
2017-Dec-08 06:58N 34°31' E 135°23'0 0.0
2017-Dec-08 06:28N 34°31' E 135°23'0 0.0
2017-Dec-08 05:58N 34°31' E 135°23'0 0.0
2017-Dec-08 05:28N 34°31' E 135°23'0 0.0
2017-Dec-08 04:58N 34°31' E 135°23'0 0.0
2017-Dec-08 04:28N 34°31' E 135°23'0 0.0
2017-Dec-08 03:58N 34°31' E 135°23'0 0.0
2017-Dec-08 03:28N 34°31' E 135°23'0 0.0
2017-Dec-08 02:58N 34°31' E 135°23'0 0.0
2017-Dec-08 02:28N 34°31' E 135°23'0 0.0
2017-Dec-08 01:58N 34°31' E 135°23'0 0.0
2017-Dec-08 01:29N 34°31' E 135°23'0 0.0
2017-Dec-08 01:00N 34°31' E 135°23'0 0.0
2017-Dec-08 00:27N 34°31' E 135°23'0 0.0
2017-Dec-07 23:57N 34°31' E 135°23'0 0.0
2017-Dec-07 23:27N 34°31' E 135°23'0 0.0
2017-Dec-07 23:00N 34°31' E 135°23'0 0.0
2017-Dec-07 22:30N 34°31' E 135°23'0 0.2
2017-Dec-07 22:00N 34°31' E 135°23'1 1.9
2017-Dec-07 21:30N 34°32' E 135°23'2 3.0
2017-Dec-07 20:59N 34°32' E 135°21'0 0.0
2017-Dec-07 20:29N 34°32' E 135°21'0 0.0
2017-Dec-07 19:59N 34°32' E 135°21'0 0.0
2017-Dec-07 19:29N 34°32' E 135°21'0 0.1
2017-Dec-07 18:59N 34°32' E 135°21'0 0.1
2017-Dec-07 18:29N 34°32' E 135°21'0 0.1
2017-Dec-07 17:59N 34°32' E 135°21'0 0.0
2017-Dec-07 17:29N 34°32' E 135°21'0 0.1
2017-Dec-07 16:59N 34°32' E 135°21'0 0.3
2017-Dec-07 16:29N 34°32' E 135°21'0 0.1
2017-Dec-07 15:59N 34°32' E 135°21'0 0.0
2017-Dec-07 15:29N 34°32' E 135°21'0 0.0
2017-Dec-07 14:59N 34°32' E 135°21'0 0.0
2017-Dec-07 14:29N 34°32' E 135°21'0 0.0
2017-Dec-07 13:59N 34°32' E 135°21'0 0.0
2017-Dec-07 13:29N 34°32' E 135°21'0 0.0
2017-Dec-07 12:59N 34°32' E 135°21'0 0.0
2017-Dec-07 12:29N 34°32' E 135°21'0 0.1
2017-Dec-07 11:59N 34°32' E 135°21'0 0.0
2017-Dec-07 11:29N 34°32' E 135°21'0 0.1
2017-Dec-07 10:59N 34°32' E 135°21'0 0.0
2017-Dec-07 10:29N 34°32' E 135°21'0 0.0
2017-Dec-07 09:59N 34°32' E 135°21'0 0.1
2017-Dec-07 09:30N 34°32' E 135°21'4 7.7
2017-Dec-07 09:00N 34°36' E 135°21'3 6.7
2017-Dec-07 08:30N 34°38' E 135°24'0 0.6
2017-Dec-07 07:59N 34°38' E 135°25'0 0.0
2017-Dec-07 07:26N 34°38' E 135°25'0 0.0
2017-Dec-07 06:56N 34°38' E 135°25'0 0.0
2017-Dec-07 06:29N 34°38' E 135°25'0 0.0
2017-Dec-07 05:59N 34°38' E 135°25'0 0.0
2017-Dec-07 05:26N 34°38' E 135°25'0 0.0
2017-Dec-07 04:56N 34°38' E 135°25'0 0.0
2017-Dec-07 04:20N 34°38' E 135°25'0 0.0
2017-Dec-07 03:59N 34°38' E 135°25'0 0.0
2017-Dec-07 03:26N 34°38' E 135°25'0 0.0
2017-Dec-07 02:56N 34°38' E 135°25'0 0.0
2017-Dec-07 02:29N 34°38' E 135°25'0 0.0
2017-Dec-07 01:59N 34°38' E 135°25'0 0.0
2017-Dec-07 01:29N 34°38' E 135°25'0 0.0
2017-Dec-07 00:59N 34°38' E 135°25'0 0.0
2017-Dec-07 00:29N 34°38' E 135°25'0 0.0
2017-Dec-06 23:59N 34°38' E 135°25'0 0.0
2017-Dec-06 23:29N 34°38' E 135°25'0 0.0
2017-Dec-06 22:59N 34°38' E 135°25'0 0.0
2017-Dec-06 22:29N 34°38' E 135°25'0 0.0
2017-Dec-06 21:59N 34°38' E 135°25'0 0.0
2017-Dec-06 21:26N 34°38' E 135°25'0 0.0
2017-Dec-06 20:59N 34°38' E 135°25'  
Track history (hours):
 
Tides and Currents Weather Stations Pressure Air Temp Water Temp Dewpoint Dewpoint Depression Visibility Wind Speed Wind Dir Waves Ship Positions

Yusho Cherry

Last reported at 2017-Dec-15 17:59 UTC. Time now 2017-Dec-15 18:08 UTC.
Position N 34°13' E 135°06'.

Length 110 m; draft 8.4 m.

Type: Ship. MMSI: 372991000.

Date/timePositionNaut miles runAvg speedWind from/ knotsBaromVisibWave heightAir tempDewpointWater temp
2017-Dec-15 17:59N 34°13' E 135°06'0 0.0
2017-Dec-15 17:29N 34°13' E 135°06'0 0.0
2017-Dec-15 16:59N 34°13' E 135°06'0 0.0
2017-Dec-15 16:29N 34°13' E 135°06'0 0.0
2017-Dec-15 15:59N 34°13' E 135°06'0 0.1
2017-Dec-15 15:29N 34°13' E 135°06'0 0.1
2017-Dec-15 14:59N 34°13' E 135°06'0 0.0
2017-Dec-15 14:29N 34°13' E 135°06'0 0.0
2017-Dec-15 13:59N 34°13' E 135°06'0 0.0
2017-Dec-15 13:29N 34°13' E 135°06'0 0.0
2017-Dec-15 12:59N 34°13' E 135°06'0 0.0
2017-Dec-15 12:29N 34°13' E 135°06'0 0.0
2017-Dec-15 11:59N 34°13' E 135°06'0 0.0
2017-Dec-15 11:29N 34°13' E 135°06'0 0.0
2017-Dec-15 11:00N 34°13' E 135°06'1 1.2
2017-Dec-15 10:30N 34°13' E 135°06'4 7.9
2017-Dec-15 10:01N 34°14' E 135°01'5 9.2
2017-Dec-15 09:30N 34°18' E 134°59'611.2
2017-Dec-15 09:00N 34°23' E 135°02'611.6
2017-Dec-15 08:31N 34°27' E 135°07'611.9
2017-Dec-15 08:00N 34°31' E 135°12'611.4
2017-Dec-15 07:30N 34°35' E 135°17'611.3
2017-Dec-15 07:01N 34°38' E 135°23'3 5.3
2017-Dec-15 06:31N 34°39' E 135°26'0 0.1
2017-Dec-15 05:59N 34°39' E 135°26'0 0.0
2017-Dec-15 05:29N 34°39' E 135°26'0 0.0
2017-Dec-15 04:59N 34°39' E 135°26'0 0.0
2017-Dec-15 04:29N 34°39' E 135°26'0 0.0
2017-Dec-15 03:59N 34°39' E 135°26'0 0.0
2017-Dec-15 02:29N 34°39' E 135°26'0 0.0
2017-Dec-15 00:59N 34°39' E 135°26'0 0.0
2017-Dec-15 00:29N 34°39' E 135°26'0 0.0
2017-Dec-14 18:29N 34°39' E 135°26'0 0.0
2017-Dec-14 17:59N 34°39' E 135°26'0 0.0
2017-Dec-14 17:29N 34°39' E 135°26'0 0.0
2017-Dec-14 16:59N 34°39' E 135°26'0 0.0
2017-Dec-14 16:29N 34°39' E 135°26'0 0.0
2017-Dec-14 15:59N 34°39' E 135°26'0 0.0
2017-Dec-14 14:59N 34°39' E 135°26'0 0.0
2017-Dec-14 14:29N 34°39' E 135°26'0 0.0
2017-Dec-14 13:59N 34°39' E 135°26'0 0.0
2017-Dec-14 13:29N 34°39' E 135°26'0 0.0
2017-Dec-14 12:59N 34°39' E 135°26'0 0.0
2017-Dec-14 12:29N 34°39' E 135°26'0 0.0
2017-Dec-14 11:59N 34°39' E 135°26'0 0.0
2017-Dec-14 11:29N 34°39' E 135°26'0 0.0
2017-Dec-14 10:59N 34°39' E 135°26'0 0.0
2017-Dec-14 10:29N 34°39' E 135°26'0 0.0
2017-Dec-14 09:59N 34°39' E 135°26'0 0.0
2017-Dec-14 09:29N 34°39' E 135°26'0 0.0
2017-Dec-14 08:59N 34°39' E 135°26'0 0.0
2017-Dec-14 08:29N 34°39' E 135°26'0 0.0
2017-Dec-14 07:59N 34°39' E 135°26'0 0.0
2017-Dec-14 07:29N 34°39' E 135°26'0 0.0
2017-Dec-14 06:59N 34°39' E 135°26'0 0.0
2017-Dec-14 06:29N 34°39' E 135°26'0 0.0
2017-Dec-14 05:59N 34°39' E 135°26'0 0.0
2017-Dec-14 05:29N 34°39' E 135°26'0 0.0
2017-Dec-14 04:59N 34°39' E 135°26'0 0.0
2017-Dec-14 04:29N 34°39' E 135°26'0 0.0
2017-Dec-14 03:59N 34°39' E 135°26'0 0.0
2017-Dec-14 03:29N 34°39' E 135°26'0 0.0
2017-Dec-14 02:59N 34°39' E 135°26'0 0.0
2017-Dec-14 02:29N 34°39' E 135°26'0 0.0
2017-Dec-14 01:59N 34°39' E 135°26'0 0.0
2017-Dec-14 01:29N 34°39' E 135°26'0 0.0
2017-Dec-14 00:59N 34°39' E 135°26'0 0.0
2017-Dec-14 00:29N 34°39' E 135°26'0 0.0
2017-Dec-13 23:59N 34°39' E 135°26'0 0.0
2017-Dec-13 23:29N 34°39' E 135°26'0 0.0
2017-Dec-13 22:59N 34°39' E 135°26'0 0.0
2017-Dec-13 22:29N 34°39' E 135°26'0 0.1
2017-Dec-13 21:59N 34°39' E 135°26'1 1.8
2017-Dec-13 21:30N 34°39' E 135°25'2 5.0
2017-Dec-13 21:00N 34°37' E 135°23'0 0.2
2017-Dec-13 20:29N 34°37' E 135°23'0 0.1
2017-Dec-13 19:59N 34°37' E 135°23'0 0.1
2017-Dec-13 19:29N 34°37' E 135°23'0 0.0
2017-Dec-13 18:59N 34°37' E 135°23'0 0.1
2017-Dec-13 18:29N 34°37' E 135°23'0 0.0
2017-Dec-13 17:59N 34°37' E 135°23'0 0.0
2017-Dec-13 17:29N 34°37' E 135°23'0 0.0
2017-Dec-13 16:59N 34°37' E 135°23'0 0.0
2017-Dec-13 16:29N 34°37' E 135°23'0 0.0
2017-Dec-13 15:59N 34°37' E 135°23'0 0.0
2017-Dec-13 15:29N 34°37' E 135°23'0 0.1
2017-Dec-13 14:59N 34°37' E 135°23'0 0.0
2017-Dec-13 14:26N 34°37' E 135°23'0 0.0
2017-Dec-13 13:59N 34°37' E 135°23'0 0.0
2017-Dec-13 13:29N 34°37' E 135°23'0 0.1
2017-Dec-13 12:59N 34°37' E 135°23'0 0.0
2017-Dec-13 12:29N 34°37' E 135°23'0 0.0
2017-Dec-13 11:59N 34°37' E 135°23'0 0.0
2017-Dec-13 11:29N 34°37' E 135°23'0 0.0
2017-Dec-13 10:59N 34°37' E 135°23'0 0.0
2017-Dec-13 10:29N 34°37' E 135°23'0 0.0
2017-Dec-13 09:59N 34°37' E 135°23'0 0.0
2017-Dec-13 09:29N 34°37' E 135°23'0 0.0
2017-Dec-13 08:59N 34°37' E 135°23'0 0.0
2017-Dec-13 08:29N 34°37' E 135°23'0 0.3
2017-Dec-13 08:00N 34°37' E 135°23'3 5.4
2017-Dec-13 07:30N 34°35' E 135°22'4 8.3
2017-Dec-13 07:00N 34°31' E 135°23'0 0.3
2017-Dec-13 06:28N 34°31' E 135°23'0 0.0
2017-Dec-13 05:58N 34°31' E 135°23'0 0.0
2017-Dec-13 05:28N 34°31' E 135°23'0 0.0
2017-Dec-13 04:58N 34°31' E 135°23'0 0.0
2017-Dec-13 04:28N 34°31' E 135°23'0 0.0
2017-Dec-13 03:58N 34°31' E 135°23'0 0.0
2017-Dec-13 03:28N 34°31' E 135°23'0 0.0
2017-Dec-13 02:58N 34°31' E 135°23'0 0.0
2017-Dec-13 02:28N 34°31' E 135°23'0 0.0
2017-Dec-13 01:58N 34°31' E 135°23'0 0.0
2017-Dec-13 01:28N 34°31' E 135°23'0 0.0
2017-Dec-13 00:58N 34°31' E 135°23'0 0.0
2017-Dec-13 00:28N 34°31' E 135°23'0 0.0
2017-Dec-12 23:58N 34°31' E 135°23'0 0.0
2017-Dec-12 23:28N 34°31' E 135°23'0 0.0
2017-Dec-12 22:58N 34°31' E 135°23'0 0.0
2017-Dec-12 22:28N 34°31' E 135°23'0 0.0
2017-Dec-12 21:58N 34°31' E 135°23'0 0.0
2017-Dec-12 21:28N 34°31' E 135°23'0 0.0
2017-Dec-12 20:58N 34°31' E 135°23'0 0.0
2017-Dec-12 20:28N 34°31' E 135°23'0 0.0
2017-Dec-12 19:58N 34°31' E 135°23'0 0.0
2017-Dec-12 19:28N 34°31' E 135°23'0 0.0
2017-Dec-12 18:58N 34°31' E 135°23'0 0.0
2017-Dec-12 18:28N 34°31' E 135°23'0 0.0
2017-Dec-12 17:58N 34°31' E 135°23'0 0.0
2017-Dec-12 17:28N 34°31' E 135°23'0 0.0
2017-Dec-12 16:58N 34°31' E 135°23'0 0.0
2017-Dec-12 16:28N 34°31' E 135°23'0 0.0
2017-Dec-12 15:58N 34°31' E 135°23'0 0.0
2017-Dec-12 15:28N 34°31' E 135°23'0 0.0
2017-Dec-12 14:58N 34°31' E 135°23'0 0.0
2017-Dec-12 14:28N 34°31' E 135°23'0 0.0
2017-Dec-12 13:58N 34°31' E 135°23'0 0.0
2017-Dec-12 13:28N 34°31' E 135°23'0 0.0
2017-Dec-12 12:58N 34°31' E 135°23'0 0.0
2017-Dec-12 12:28N 34°31' E 135°23'0 0.0
2017-Dec-12 11:58N 34°31' E 135°23'0 0.0
2017-Dec-12 11:28N 34°31' E 135°23'0 0.0
2017-Dec-12 10:58N 34°31' E 135°23'0 0.0
2017-Dec-12 10:28N 34°31' E 135°23'0 0.0
2017-Dec-12 09:58N 34°31' E 135°23'0 0.0
2017-Dec-12 09:28N 34°31' E 135°23'0 0.0
2017-Dec-12 08:58N 34°31' E 135°23'0 0.0
2017-Dec-12 08:28N 34°31' E 135°23'0 0.0
2017-Dec-12 07:58N 34°31' E 135°23'0 0.0
2017-Dec-12 07:28N 34°31' E 135°23'0 0.0
2017-Dec-12 06:58N 34°31' E 135°23'0 0.0
2017-Dec-12 06:22N 34°31' E 135°23'0 0.0
2017-Dec-12 05:58N 34°31' E 135°23'0 0.0
2017-Dec-12 05:28N 34°31' E 135°23'0 0.0
2017-Dec-12 04:58N 34°31' E 135°23'0 0.0
2017-Dec-12 04:28N 34°31' E 135°23'0 0.0
2017-Dec-12 03:52N 34°31' E 135°23'0 0.0
2017-Dec-12 03:28N 34°31' E 135°23'0 0.0
2017-Dec-12 02:58N 34°31' E 135°23'0 0.0
2017-Dec-12 02:28N 34°31' E 135°23'0 0.0
2017-Dec-12 01:58N 34°31' E 135°23'0 0.0
2017-Dec-12 01:25N 34°31' E 135°23'0 0.0
2017-Dec-12 00:58N 34°31' E 135°23'0 0.0
2017-Dec-12 00:29N 34°31' E 135°23'0 0.0
2017-Dec-11 23:58N 34°31' E 135°23'0 0.0
2017-Dec-11 23:28N 34°31' E 135°23'0 0.0
2017-Dec-11 22:58N 34°31' E 135°23'0 0.0
2017-Dec-11 22:28N 34°31' E 135°23'0 0.0
2017-Dec-11 21:58N 34°31' E 135°23'0 0.0
2017-Dec-11 21:28N 34°31' E 135°23'0 0.0
2017-Dec-11 20:58N 34°31' E 135°23'0 0.0
2017-Dec-11 20:28N 34°31' E 135°23'0 0.0
2017-Dec-11 19:58N 34°31' E 135°23'0 0.0
2017-Dec-11 19:28N 34°31' E 135°23'0 0.0
2017-Dec-11 18:58N 34°31' E 135°23'0 0.0
2017-Dec-11 18:28N 34°31' E 135°23'0 0.0
2017-Dec-11 17:58N 34°31' E 135°23'0 0.0
2017-Dec-11 17:28N 34°31' E 135°23'0 0.0
2017-Dec-11 16:55N 34°31' E 135°23'0 0.0
2017-Dec-11 16:28N 34°31' E 135°23'0 0.0
2017-Dec-11 15:58N 34°31' E 135°23'0 0.0
2017-Dec-11 15:28N 34°31' E 135°23'0 0.0
2017-Dec-11 14:58N 34°31' E 135°23'0 0.0
2017-Dec-11 14:28N 34°31' E 135°23'0 0.0
2017-Dec-11 13:58N 34°31' E 135°23'0 0.0
2017-Dec-11 13:28N 34°31' E 135°23'0 0.0
2017-Dec-11 12:58N 34°31' E 135°23'0 0.0
2017-Dec-11 12:28N 34°31' E 135°23'0 0.0
2017-Dec-11 11:58N 34°31' E 135°23'0 0.0
2017-Dec-11 11:28N 34°31' E 135°23'0 0.0
2017-Dec-11 10:58N 34°31' E 135°23'0 0.0
2017-Dec-11 10:28N 34°31' E 135°23'0 0.0
2017-Dec-11 09:58N 34°31' E 135°23'0 0.0
2017-Dec-11 09:28N 34°31' E 135°23'0 0.0
2017-Dec-11 08:58N 34°31' E 135°23'0 0.0
2017-Dec-11 08:28N 34°31' E 135°23'0 0.0
2017-Dec-11 07:58N 34°31' E 135°23'0 0.0
2017-Dec-11 07:28N 34°31' E 135°23'0 0.0
2017-Dec-11 06:58N 34°31' E 135°23'0 0.0
2017-Dec-11 06:28N 34°31' E 135°23'0 0.0
2017-Dec-11 05:52N 34°31' E 135°23'0 0.0
2017-Dec-11 05:28N 34°31' E 135°23'0 0.0
2017-Dec-11 04:58N 34°31' E 135°23'0 0.0
2017-Dec-11 04:28N 34°31' E 135°23'0 0.0
2017-Dec-11 03:58N 34°31' E 135°23'0 0.0
2017-Dec-11 03:28N 34°31' E 135°23'0 0.0
2017-Dec-11 02:58N 34°31' E 135°23'0 0.0
2017-Dec-11 02:28N 34°31' E 135°23'0 0.0
2017-Dec-11 01:58N 34°31' E 135°23'0 0.0
2017-Dec-11 01:28N 34°31' E 135°23'0 0.0
2017-Dec-11 00:58N 34°31' E 135°23'0 0.0
2017-Dec-11 00:28N 34°31' E 135°23'0 0.0
2017-Dec-10 23:58N 34°31' E 135°23'0 0.0
2017-Dec-10 23:28N 34°31' E 135°23'0 0.0
2017-Dec-10 22:58N 34°31' E 135°23'0 0.0
2017-Dec-10 22:28N 34°31' E 135°23'0 0.0
2017-Dec-10 21:58N 34°31' E 135°23'0 0.0
2017-Dec-10 21:28N 34°31' E 135°23'0 0.1
2017-Dec-10 20:58N 34°31' E 135°23'0 0.0
2017-Dec-10 20:28N 34°31' E 135°23'0 0.0
2017-Dec-10 19:58N 34°31' E 135°23'0 0.0
2017-Dec-10 19:28N 34°31' E 135°23'0 0.0
2017-Dec-10 18:58N 34°31' E 135°23'0 0.0
2017-Dec-10 18:28N 34°31' E 135°23'0 0.0
2017-Dec-10 17:58N 34°31' E 135°23'0 0.0
2017-Dec-10 17:28N 34°31' E 135°23'0 0.0
2017-Dec-10 16:58N 34°31' E 135°23'0 0.0
2017-Dec-10 16:28N 34°31' E 135°23'0 0.0
2017-Dec-10 15:58N 34°31' E 135°23'0 0.0
2017-Dec-10 15:28N 34°31' E 135°23'0 0.0
2017-Dec-10 14:58N 34°31' E 135°23'0 0.0
2017-Dec-10 14:28N 34°31' E 135°23'0 0.0
2017-Dec-10 13:58N 34°31' E 135°23'0 0.0
2017-Dec-10 13:28N 34°31' E 135°23'0 0.0
2017-Dec-10 12:58N 34°31' E 135°23'0 0.0
2017-Dec-10 12:28N 34°31' E 135°23'0 0.0
2017-Dec-10 11:58N 34°31' E 135°23'0 0.0
2017-Dec-10 11:28N 34°31' E 135°23'0 0.0
2017-Dec-10 10:58N 34°31' E 135°23'0 0.0
2017-Dec-10 10:28N 34°31' E 135°23'0 0.0
2017-Dec-10 09:58N 34°31' E 135°23'0 0.0
2017-Dec-10 09:28N 34°31' E 135°23'0 0.0
2017-Dec-10 08:58N 34°31' E 135°23'0 0.0
2017-Dec-10 08:28N 34°31' E 135°23'0 0.0
2017-Dec-10 07:58N 34°31' E 135°23'0 0.0
2017-Dec-10 07:28N 34°31' E 135°23'0 0.0
2017-Dec-10 06:58N 34°31' E 135°23'0 0.0
2017-Dec-10 06:28N 34°31' E 135°23'0 0.0
2017-Dec-10 05:58N 34°31' E 135°23'0 0.0
2017-Dec-10 05:28N 34°31' E 135°23'0 0.0
2017-Dec-10 04:58N 34°31' E 135°23'0 0.0
2017-Dec-10 04:28N 34°31' E 135°23'0 0.0
2017-Dec-10 03:58N 34°31' E 135°23'0 0.0
2017-Dec-10 03:28N 34°31' E 135°23'0 0.0
2017-Dec-10 02:58N 34°31' E 135°23'0 0.0
2017-Dec-10 02:28N 34°31' E 135°23'0 0.0
2017-Dec-10 01:58N 34°31' E 135°23'0 0.0
2017-Dec-10 01:28N 34°31' E 135°23'0 0.0
2017-Dec-10 00:58N 34°31' E 135°23'0 0.0
2017-Dec-10 00:28N 34°31' E 135°23'0 0.0
2017-Dec-09 23:58N 34°31' E 135°23'0 0.0
2017-Dec-09 23:28N 34°31' E 135°23'0 0.0
2017-Dec-09 22:58N 34°31' E 135°23'0 0.0
2017-Dec-09 22:28N 34°31' E 135°23'0 0.0
2017-Dec-09 21:58N 34°31' E 135°23'0 0.0
2017-Dec-09 21:28N 34°31' E 135°23'0 0.0
2017-Dec-09 20:58N 34°31' E 135°23'0 0.0
2017-Dec-09 20:25N 34°31' E 135°23'0 0.0
2017-Dec-09 19:58N 34°31' E 135°23'0 0.0
2017-Dec-09 19:28N 34°31' E 135°23'0 0.0
2017-Dec-09 18:58N 34°31' E 135°23'0 0.0
2017-Dec-09 18:28N 34°31' E 135°23'0 0.0
2017-Dec-09 17:58N 34°31' E 135°23'0 0.0
2017-Dec-09 17:28N 34°31' E 135°23'0 0.0
2017-Dec-09 16:58N 34°31' E 135°23'0 0.0
2017-Dec-09 16:28N 34°31' E 135°23'0 0.0
2017-Dec-09 15:58N 34°31' E 135°23'0 0.0
2017-Dec-09 15:28N 34°31' E 135°23'0 0.0
2017-Dec-09 14:58N 34°31' E 135°23'0 0.0
2017-Dec-09 14:28N 34°31' E 135°23'0 0.0
2017-Dec-09 13:58N 34°31' E 135°23'0 0.0
2017-Dec-09 13:28N 34°31' E 135°23'0 0.0
2017-Dec-09 12:58N 34°31' E 135°23'0 0.0
2017-Dec-09 12:28N 34°31' E 135°23'0 0.0
2017-Dec-09 11:58N 34°31' E 135°23'0 0.0
2017-Dec-09 11:28N 34°31' E 135°23'0 0.0
2017-Dec-09 10:58N 34°31' E 135°23'0 0.0
2017-Dec-09 10:28N 34°31' E 135°23'0 0.0
2017-Dec-09 09:58N 34°31' E 135°23'0 0.0
2017-Dec-09 09:28N 34°31' E 135°23'0 0.0
2017-Dec-09 08:58N 34°31' E 135°23'0 0.0
2017-Dec-09 08:28N 34°31' E 135°23'0 0.0
2017-Dec-09 07:58N 34°31' E 135°23'0 0.0
2017-Dec-09 07:28N 34°31' E 135°23'0 0.0
2017-Dec-09 06:52N 34°31' E 135°23'0 0.0
2017-Dec-09 06:28N 34°31' E 135°23'0 0.0
2017-Dec-09 05:58N 34°31' E 135°23'0 0.0
2017-Dec-09 05:28N 34°31' E 135°23'0 0.0
2017-Dec-09 04:58N 34°31' E 135°23'0 0.0
2017-Dec-09 04:28N 34°31' E 135°23'0 0.0
2017-Dec-09 03:58N 34°31' E 135°23'0 0.0
2017-Dec-09 03:28N 34°31' E 135°23'0 0.0
2017-Dec-09 02:58N 34°31' E 135°23'0 0.0
2017-Dec-09 02:28N 34°31' E 135°23'0 0.0
2017-Dec-09 01:58N 34°31' E 135°23'0 0.0
2017-Dec-09 01:26N 34°31' E 135°23'0 0.0
2017-Dec-09 00:56N 34°31' E 135°23'0 0.0
2017-Dec-09 00:28N 34°31' E 135°23'0 0.0
2017-Dec-08 23:58N 34°31' E 135°23'0 0.0
2017-Dec-08 23:28N 34°31' E 135°23'0 0.0
2017-Dec-08 22:58N 34°31' E 135°23'0 0.0
2017-Dec-08 22:28N 34°31' E 135°23'0 0.1
2017-Dec-08 22:00N 34°31' E 135°23'0 0.3
2017-Dec-08 21:31N 34°31' E 135°23'0 0.0
2017-Dec-08 20:58N 34°31' E 135°23'0 0.0
2017-Dec-08 20:28N 34°31' E 135°23'0 0.0
2017-Dec-08 19:58N 34°31' E 135°23'0 0.0
2017-Dec-08 19:28N 34°31' E 135°23'0 0.0
2017-Dec-08 18:58N 34°31' E 135°23'0 0.0
2017-Dec-08 18:28N 34°31' E 135°23'0 0.0
2017-Dec-08 17:58N 34°31' E 135°23'0 0.0
2017-Dec-08 17:28N 34°31' E 135°23'0 0.0
2017-Dec-08 16:52N 34°31' E 135°23'0 0.0
2017-Dec-08 16:28N 34°31' E 135°23'0 0.0
2017-Dec-08 15:58N 34°31' E 135°23'0 0.0
2017-Dec-08 15:28N 34°31' E 135°23'0 0.0
2017-Dec-08 14:58N 34°31' E 135°23'0 0.0
2017-Dec-08 14:28N 34°31' E 135°23'0 0.0
2017-Dec-08 13:58N 34°31' E 135°23'0 0.0
2017-Dec-08 13:28N 34°31' E 135°23'0 0.0
2017-Dec-08 12:58N 34°31' E 135°23'0 0.0
2017-Dec-08 12:28N 34°31' E 135°23'0 0.0
2017-Dec-08 11:58N 34°31' E 135°23'0 0.0
2017-Dec-08 11:28N 34°31' E 135°23'0 0.0
2017-Dec-08 10:58N 34°31' E 135°23'0 0.0
2017-Dec-08 10:28N 34°31' E 135°23'0 0.0
2017-Dec-08 09:58N 34°31' E 135°23'0 0.0
2017-Dec-08 09:25N 34°31' E 135°23'0 0.0
2017-Dec-08 08:58N 34°31' E 135°23'0 0.0
2017-Dec-08 08:28N 34°31' E 135°23'0 0.0
2017-Dec-08 07:58N 34°31' E 135°23'0 0.0
2017-Dec-08 07:28N 34°31' E 135°23'0 0.0
2017-Dec-08 06:58N 34°31' E 135°23'0 0.0
2017-Dec-08 06:28N 34°31' E 135°23'0 0.0
2017-Dec-08 05:58N 34°31' E 135°23'0 0.0
2017-Dec-08 05:28N 34°31' E 135°23'0 0.0
2017-Dec-08 04:58N 34°31' E 135°23'0 0.0
2017-Dec-08 04:28N 34°31' E 135°23'0 0.0
2017-Dec-08 03:58N 34°31' E 135°23'0 0.0
2017-Dec-08 03:28N 34°31' E 135°23'0 0.0
2017-Dec-08 02:58N 34°31' E 135°23'0 0.0
2017-Dec-08 02:28N 34°31' E 135°23'0 0.0
2017-Dec-08 01:58N 34°31' E 135°23'0 0.0
2017-Dec-08 01:29N 34°31' E 135°23'0 0.0
2017-Dec-08 01:00N 34°31' E 135°23'0 0.0
2017-Dec-08 00:27N 34°31' E 135°23'0 0.0
2017-Dec-07 23:57N 34°31' E 135°23'0 0.0
2017-Dec-07 23:27N 34°31' E 135°23'0 0.0
2017-Dec-07 23:00N 34°31' E 135°23'0 0.0
2017-Dec-07 22:30N 34°31' E 135°23'0 0.2
2017-Dec-07 22:00N 34°31' E 135°23'1 1.9
2017-Dec-07 21:30N 34°32' E 135°23'2 3.0
2017-Dec-07 20:59N 34°32' E 135°21'0 0.0
2017-Dec-07 20:29N 34°32' E 135°21'0 0.0
2017-Dec-07 19:59N 34°32' E 135°21'0 0.0
2017-Dec-07 19:29N 34°32' E 135°21'0 0.1
2017-Dec-07 18:59N 34°32' E 135°21'0 0.1
2017-Dec-07 18:29N 34°32' E 135°21'0 0.1
2017-Dec-07 17:59N 34°32' E 135°21'0 0.0
2017-Dec-07 17:29N 34°32' E 135°21'0 0.1
2017-Dec-07 16:59N 34°32' E 135°21'0 0.3
2017-Dec-07 16:29N 34°32' E 135°21'0 0.1
2017-Dec-07 15:59N 34°32' E 135°21'0 0.0
2017-Dec-07 15:29N 34°32' E 135°21'0 0.0
2017-Dec-07 14:59N 34°32' E 135°21'0 0.0
2017-Dec-07 14:29N 34°32' E 135°21'0 0.0
2017-Dec-07 13:59N 34°32' E 135°21'0 0.0
2017-Dec-07 13:29N 34°32' E 135°21'0 0.0
2017-Dec-07 12:59N 34°32' E 135°21'0 0.0
2017-Dec-07 12:29N 34°32' E 135°21'0 0.1
2017-Dec-07 11:59N 34°32' E 135°21'0 0.0
2017-Dec-07 11:29N 34°32' E 135°21'0 0.1
2017-Dec-07 10:59N 34°32' E 135°21'0 0.0
2017-Dec-07 10:29N 34°32' E 135°21'0 0.0
2017-Dec-07 09:59N 34°32' E 135°21'0 0.1
2017-Dec-07 09:30N 34°32' E 135°21'4 7.7
2017-Dec-07 09:00N 34°36' E 135°21'3 6.7
2017-Dec-07 08:30N 34°38' E 135°24'0 0.6
2017-Dec-07 07:59N 34°38' E 135°25'0 0.0
2017-Dec-07 07:26N 34°38' E 135°25'0 0.0
2017-Dec-07 06:56N 34°38' E 135°25'0 0.0
2017-Dec-07 06:29N 34°38' E 135°25'0 0.0
2017-Dec-07 05:59N 34°38' E 135°25'0 0.0
2017-Dec-07 05:26N 34°38' E 135°25'0 0.0
2017-Dec-07 04:56N 34°38' E 135°25'0 0.0
2017-Dec-07 04:20N 34°38' E 135°25'0 0.0
2017-Dec-07 03:59N 34°38' E 135°25'0 0.0
2017-Dec-07 03:26N 34°38' E 135°25'0 0.0
2017-Dec-07 02:56N 34°38' E 135°25'0 0.0
2017-Dec-07 02:29N 34°38' E 135°25'0 0.0
2017-Dec-07 01:59N 34°38' E 135°25'0 0.0
2017-Dec-07 01:29N 34°38' E 135°25'0 0.0
2017-Dec-07 00:59N 34°38' E 135°25'0 0.0
2017-Dec-07 00:29N 34°38' E 135°25'0 0.0
2017-Dec-06 23:59N 34°38' E 135°25'0 0.0
2017-Dec-06 23:29N 34°38' E 135°25'0 0.0
2017-Dec-06 22:59N 34°38' E 135°25'0 0.0
2017-Dec-06 22:29N 34°38' E 135°25'0 0.0
2017-Dec-06 21:59N 34°38' E 135°25'0 0.0
2017-Dec-06 21:26N 34°38' E 135°25'0 0.0
2017-Dec-06 20:59N 34°38' E 135°25'  

Dump ship's entire track history